Terminal Aerodrome Forecast
Issued by NWS

Home | Current Version | Previous Version | Graphics & Text | Print | Product List | Glossary On
Versions: 1 2 3 4 5 6 7 8 9 10 11 12 13 14 15 16
202
FTUS43 KBIS 161124
TAFDIK
TAF
KDIK 161124Z 1612/1712 26004KT 1/4SM FG VV002
     FM161400 32004KT 1/2SM FG FEW008
     FM161600 35006KT P6SM FEW030
     FM170000 04008KT P6SM FEW250
     FM170500 14007KT P6SM FEW200=

USA.gov is the U.S. government's official web portal to all federal, state and local government web resources and services.